Time;durP1;ratioP1;P1;durP2;ratioP2;P2;SDS_P1;SDS_P2;PMS_P1;PMS_P2;Temp;Humidity;BMP_temperature;BMP_pressure;BME280_temperature;BME280_humidity;BME280_pressure;Samples;Min_cycle;Max_cycle;Signal;HPM_P1;HPM_P2
2022/01/09 00:02:04;;;;;;;3.03;2.10;;;1.20;99.90;;;;;;5077399;28;20463;-49
2022/01/09 00:04:31;;;;;;;6.17;4.70;;;1.20;99.90;;;;;;5077535;28;20474;-52
2022/01/09 00:06:59;;;;;;;7.37;2.93;;;1.20;99.90;;;;;;5076967;28;20490;-52
2022/01/09 00:09:28;;;;;;;3.70;3.03;;;1.10;99.90;;;;;;5077633;28;20455;-48
2022/01/09 00:11:57;;;;;;;5.20;3.27;;;1.20;99.90;;;;;;5076965;28;20468;-52
2022/01/09 00:14:25;;;;;;;6.07;3.43;;;1.10;99.90;;;;;;5077469;28;20451;-50
2022/01/09 00:16:51;;;;;;;6.87;2.50;;;1.20;99.90;;;;;;5077229;28;20574;-52
2022/01/09 00:19:18;;;;;;;3.70;2.17;;;1.20;99.90;;;;;;5077440;28;20427;-53
2022/01/09 00:21:45;;;;;;;3.93;2.37;;;1.20;99.90;;;;;;5076751;28;20431;-51
2022/01/09 00:24:11;;;;;;;3.67;2.57;;;1.20;99.90;;;;;;5076998;28;20419;-49
2022/01/09 00:26:38;;;;;;;3.50;2.53;;;1.20;99.90;;;;;;5076942;28;20487;-46
2022/01/09 00:29:07;;;;;;;3.80;2.23;;;1.20;99.90;;;;;;5076692;28;20473;-46
2022/01/09 00:31:35;;;;;;;2.40;2.07;;;1.20;99.90;;;;;;5076736;28;20466;-48
2022/01/09 00:34:02;;;;;;;2.47;2.27;;;1.20;99.90;;;;;;5076953;28;20439;-47
2022/01/09 00:36:29;;;;;;;2.93;2.30;;;1.20;99.90;;;;;;5077264;28;20440;-49
2022/01/09 00:38:55;;;;;;;4.70;3.50;;;1.20;99.90;;;;;;5076977;28;20444;-45
2022/01/09 00:41:22;;;;;;;4.10;3.33;;;1.20;99.90;;;;;;5076719;28;20455;-50
2022/01/09 00:43:50;;;;;;;4.03;2.67;;;1.20;99.90;;;;;;5077088;28;20439;-51
2022/01/09 00:46:16;;;;;;;3.73;2.90;;;1.20;99.90;;;;;;5076786;28;20450;-53
2022/01/09 00:48:44;;;;;;;2.87;2.17;;;1.30;99.90;;;;;;5077117;28;20439;-59
2022/01/09 00:51:11;;;;;;;8.70;3.43;;;1.30;99.90;;;;;;5076533;28;20456;-52
2022/01/09 00:53:38;;;;;;;7.80;2.30;;;1.30;99.90;;;;;;5076649;28;20450;-47
2022/01/09 00:56:05;;;;;;;4.40;1.63;;;1.30;99.90;;;;;;5076754;28;20454;-52
2022/01/09 00:58:32;;;;;;;2.13;1.93;;;1.20;99.90;;;;;;5076484;28;20459;-46
2022/01/09 01:00:59;;;;;;;3.13;2.27;;;1.20;99.90;;;;;;5076664;28;20447;-50
2022/01/09 01:03:26;;;;;;;3.33;2.00;;;1.20;99.90;;;;;;5076530;28;20455;-52
2022/01/09 01:05:56;;;;;;;4.30;2.87;;;1.20;99.90;;;;;;5076445;28;20447;-52
2022/01/09 01:08:23;;;;;;;4.57;2.60;;;1.20;99.90;;;;;;5076557;28;20471;-51
2022/01/09 01:10:50;;;;;;;2.90;2.23;;;1.20;99.90;;;;;;5076691;28;20444;-50
2022/01/09 01:13:17;;;;;;;9.50;3.60;;;1.20;99.90;;;;;;5076681;28;20494;-48
2022/01/09 01:15:44;;;;;;;3.63;2.20;;;1.10;99.90;;;;;;5076664;28;20458;-51
2022/01/09 01:18:10;;;;;;;5.50;3.53;;;1.10;99.90;;;;;;5076680;28;20486;-46
2022/01/09 01:20:37;;;;;;;8.47;4.37;;;1.10;99.90;;;;;;5076803;28;20447;-47
2022/01/09 01:23:05;;;;;;;5.43;4.10;;;1.10;99.90;;;;;;5076669;28;20466;-52
2022/01/09 01:25:32;;;;;;;4.73;3.30;;;1.10;99.90;;;;;;5075855;28;20447;-51
2022/01/09 01:27:59;;;;;;;5.80;3.53;;;1.20;99.90;;;;;;5075562;28;20464;-53
2022/01/09 01:30:25;;;;;;;4.23;2.60;;;1.10;99.90;;;;;;5075906;28;20432;-49
2022/01/09 01:32:52;;;;;;;2.47;2.27;;;1.10;99.90;;;;;;5075825;28;20462;-50
2022/01/09 01:35:19;;;;;;;6.50;3.30;;;1.00;99.90;;;;;;5075935;28;20436;-49
2022/01/09 01:37:46;;;;;;;8.87;3.67;;;1.00;99.90;;;;;;5075527;28;20462;-47
2022/01/09 01:40:19;;;;;;;5.17;2.90;;;1.10;99.90;;;;;;5075535;28;20417;-49
2022/01/09 01:42:46;;;;;;;3.17;2.07;;;1.00;99.90;;;;;;5075732;28;20481;-53
2022/01/09 01:45:14;;;;;;;2.80;2.33;;;1.10;99.90;;;;;;5075757;28;20454;-49
2022/01/09 01:47:41;;;;;;;2.80;2.40;;;1.00;99.90;;;;;;5075926;28;20509;-51
2022/01/09 01:50:11;;;;;;;4.40;2.90;;;1.00;99.90;;;;;;5075731;28;20506;-52
2022/01/09 01:52:42;;;;;;;3.47;2.10;;;1.00;99.90;;;;;;5075706;28;20443;-53
2022/01/09 01:55:12;;;;;;;5.37;3.47;;;1.00;99.90;;;;;;5075677;28;20435;-47
2022/01/09 01:57:45;;;;;;;2.37;2.00;;;1.00;99.90;;;;;;5075492;28;20448;-52
2022/01/09 02:00:15;;;;;;;5.23;3.23;;;1.00;99.90;;;;;;5075691;28;20443;-51
2022/01/09 02:02:42;;;;;;;12.27;3.97;;;1.00;99.90;;;;;;5075238;28;20446;-52
2022/01/09 02:05:12;;;;;;;3.63;2.27;;;1.00;99.90;;;;;;5075854;28;20437;-52
2022/01/09 02:07:41;;;;;;;4.67;2.90;;;1.00;99.90;;;;;;5075764;28;20512;-50
2022/01/09 02:10:09;;;;;;;5.33;2.33;;;1.00;99.90;;;;;;5076191;28;20432;-53
2022/01/09 02:12:38;;;;;;;7.57;3.73;;;1.00;99.90;;;;;;5075394;28;20424;-48
2022/01/09 02:15:31;;;;;;;10.00;2.63;;;1.00;99.90;;;;;;5075821;28;20474;-50
2022/01/09 02:17:59;;;;;;;12.00;3.47;;;1.00;99.90;;;;;;5075839;28;20527;-53
2022/01/09 02:20:29;;;;;;;6.50;4.10;;;1.00;99.90;;;;;;5075901;28;20416;-52
2022/01/09 02:22:56;;;;;;;11.60;4.33;;;1.00;99.90;;;;;;5075331;28;20451;-49
2022/01/09 02:25:22;;;;;;;4.23;3.77;;;1.00;99.90;;;;;;5074881;28;20443;-52
2022/01/09 02:27:52;;;;;;;7.17;2.80;;;1.00;99.90;;;;;;5075109;28;20514;-49
2022/01/09 02:30:19;;;;;;;4.80;2.40;;;1.00;99.90;;;;;;5075283;28;20439;-49
2022/01/09 02:32:46;;;;;;;7.40;2.40;;;1.00;99.90;;;;;;5075290;28;20439;-49
2022/01/09 02:35:12;;;;;;;3.33;2.13;;;0.90;99.90;;;;;;5075314;28;20447;-47
2022/01/09 02:37:42;;;;;;;11.10;2.40;;;0.90;99.90;;;;;;5075690;28;20443;-50
2022/01/09 02:40:10;;;;;;;3.20;2.10;;;0.90;99.90;;;;;;5077812;28;20465;-53
2022/01/09 02:42:36;;;;;;;2.40;2.20;;;0.90;99.90;;;;;;5079320;28;20466;-58
2022/01/09 02:45:04;;;;;;;3.73;2.67;;;1.00;99.90;;;;;;5079319;28;20757;-50
2022/01/09 02:47:33;;;;;;;7.70;3.10;;;0.90;99.90;;;;;;5078629;28;20564;-52
2022/01/09 02:50:11;;;;;;;3.70;2.60;;;1.00;99.90;;;;;;5079443;28;20460;-59
2022/01/09 02:52:49;;;;;;;2.80;2.40;;;0.90;99.90;;;;;;5079369;28;20895;-51
2022/01/09 02:55:17;;;;;;;5.10;3.23;;;1.00;99.90;;;;;;5078996;28;20504;-55
2022/01/09 02:57:46;;;;;;;4.30;2.77;;;0.90;99.90;;;;;;5078492;28;20478;-51
2022/01/09 03:00:19;;;;;;;6.97;4.67;;;1.00;99.90;;;;;;5078182;28;20450;-52
2022/01/09 03:02:46;;;;;;;7.17;3.63;;;1.00;99.90;;;;;;5079209;28;20419;-52
2022/01/09 03:05:15;;;;;;;4.50;3.00;;;0.90;99.90;;;;;;5079155;28;20451;-51
2022/01/09 03:07:43;;;;;;;7.20;4.13;;;0.90;99.90;;;;;;5078715;28;20463;-52
2022/01/09 03:10:13;;;;;;;4.33;3.50;;;0.90;99.90;;;;;;5078658;28;20473;-49
2022/01/09 03:12:44;;;;;;;2.90;1.70;;;0.90;99.90;;;;;;5079016;28;20411;-50
2022/01/09 03:15:12;;;;;;;6.83;2.50;;;0.90;99.90;;;;;;5078560;28;20474;-52
2022/01/09 03:17:39;;;;;;;6.97;3.40;;;0.90;99.90;;;;;;5078756;28;20470;-52
2022/01/09 03:20:10;;;;;;;5.27;2.60;;;1.00;99.90;;;;;;5078724;28;20497;-52
2022/01/09 03:22:37;;;;;;;4.90;3.13;;;0.90;99.90;;;;;;5078105;28;20451;-52
2022/01/09 03:25:04;;;;;;;4.97;2.70;;;1.00;99.90;;;;;;5078178;28;20469;-52
2022/01/09 03:27:31;;;;;;;4.03;2.90;;;1.00;99.90;;;;;;5078506;28;20504;-50
2022/01/09 03:29:59;;;;;;;3.47;2.63;;;1.00;99.90;;;;;;5078325;28;20516;-53
2022/01/09 03:32:26;;;;;;;4.10;3.40;;;1.00;99.90;;;;;;5078448;28;20432;-49
2022/01/09 03:34:52;;;;;;;3.70;2.87;;;1.00;99.90;;;;;;5078206;28;20464;-52
2022/01/09 03:37:19;;;;;;;4.03;2.93;;;1.00;99.90;;;;;;5078019;28;20443;-50
2022/01/09 03:39:46;;;;;;;3.13;2.57;;;1.00;99.90;;;;;;5078126;28;20463;-49
2022/01/09 03:42:13;;;;;;;4.80;2.20;;;0.90;99.90;;;;;;5078247;28;20478;-52
2022/01/09 03:44:39;;;;;;;4.07;3.43;;;0.90;99.90;;;;;;5077834;28;20497;-53
2022/01/09 03:47:09;;;;;;;2.90;2.10;;;0.90;99.90;;;;;;5078391;28;20460;-50
2022/01/09 03:49:36;;;;;;;4.27;2.30;;;0.90;99.90;;;;;;5078044;28;20468;-52
2022/01/09 03:52:03;;;;;;;4.83;2.67;;;0.90;99.90;;;;;;5077892;28;20445;-50
2022/01/09 03:54:29;;;;;;;8.27;2.97;;;0.90;99.90;;;;;;5078115;28;20466;-49
2022/01/09 03:56:56;;;;;;;5.57;3.30;;;0.90;99.90;;;;;;5078216;28;20488;-52
2022/01/09 03:59:25;;;;;;;2.73;2.53;;;0.90;99.90;;;;;;5077685;28;20462;-50
2022/01/09 04:01:52;;;;;;;6.37;3.87;;;0.90;99.90;;;;;;5077690;28;20470;-50
2022/01/09 04:04:22;;;;;;;6.73;3.13;;;0.90;99.90;;;;;;5077424;28;20502;-51
2022/01/09 04:06:50;;;;;;;7.53;3.27;;;0.90;99.90;;;;;;5077627;28;20462;-51
2022/01/09 04:09:21;;;;;;;2.57;2.10;;;0.90;99.90;;;;;;5077086;28;20562;-46
2022/01/09 04:11:49;;;;;;;3.97;2.13;;;0.90;99.90;;;;;;5077234;28;20423;-53
2022/01/09 04:14:16;;;;;;;3.80;2.70;;;0.90;99.90;;;;;;5077130;28;20462;-51
2022/01/09 04:16:43;;;;;;;3.67;3.00;;;0.90;99.90;;;;;;5077483;28;20458;-51
2022/01/09 04:19:13;;;;;;;5.30;3.00;;;0.90;99.90;;;;;;5077554;28;20463;-52
2022/01/09 04:21:42;;;;;;;3.40;2.53;;;0.90;99.90;;;;;;5077239;28;20467;-49
2022/01/09 04:24:09;;;;;;;5.73;2.87;;;0.90;99.90;;;;;;5077174;28;20471;-51
2022/01/09 04:26:37;;;;;;;4.53;2.30;;;0.90;99.90;;;;;;5077670;28;20505;-50
2022/01/09 04:29:04;;;;;;;8.60;3.90;;;0.90;99.90;;;;;;5077017;28;20919;-50
2022/01/09 04:31:31;;;;;;;2.70;2.33;;;0.90;99.90;;;;;;5077282;28;20458;-52
2022/01/09 04:33:58;;;;;;;3.47;2.43;;;0.90;99.90;;;;;;5076722;28;20478;-47
2022/01/09 04:36:24;;;;;;;12.70;2.23;;;1.00;99.90;;;;;;5077121;28;20432;-52
2022/01/09 04:38:54;;;;;;;2.77;2.03;;;1.00;99.90;;;;;;5077028;28;20459;-51
2022/01/09 04:41:21;;;;;;;3.57;2.03;;;1.00;99.90;;;;;;5076824;28;20433;-51
2022/01/09 04:43:49;;;;;;;4.47;2.63;;;1.10;99.90;;;;;;5076762;28;20440;-52
2022/01/09 04:46:22;;;;;;;5.30;2.63;;;1.10;99.90;;;;;;5077259;28;20474;-52
2022/01/09 04:48:53;;;;;;;3.77;2.40;;;1.10;99.90;;;;;;5076806;28;20448;-50
2022/01/09 04:51:20;;;;;;;5.73;2.73;;;1.10;99.90;;;;;;5076906;28;20442;-51
2022/01/09 04:53:48;;;;;;;4.80;3.43;;;1.00;99.90;;;;;;5076924;28;20577;-49
2022/01/09 04:56:16;;;;;;;2.67;2.47;;;1.10;99.90;;;;;;5076983;28;20447;-49
2022/01/09 04:58:43;;;;;;;5.23;2.40;;;1.10;99.90;;;;;;5076289;28;20443;-50
2022/01/09 05:01:10;;;;;;;3.10;2.20;;;1.00;99.90;;;;;;5076904;28;20450;-47
2022/01/09 05:03:37;;;;;;;1.93;1.10;;;1.00;99.90;;;;;;5076527;28;20468;-53
2022/01/09 05:06:05;;;;;;;6.37;2.90;;;1.00;99.90;;;;;;5076686;28;20500;-52
2022/01/09 05:08:31;;;;;;;10.87;2.70;;;1.00;99.90;;;;;;5077255;28;20479;-49
2022/01/09 05:10:59;;;;;;;2.80;1.60;;;1.10;99.90;;;;;;5076458;28;20444;-56
2022/01/09 05:13:27;;;;;;;4.23;2.30;;;1.10;99.90;;;;;;5076587;28;20439;-52
2022/01/09 05:15:55;;;;;;;7.73;2.53;;;1.20;99.90;;;;;;5076300;28;20431;-50
2022/01/09 05:18:21;;;;;;;2.60;2.20;;;1.20;99.90;;;;;;5075738;28;20553;-50
2022/01/09 05:20:48;;;;;;;3.10;1.90;;;1.20;99.90;;;;;;5076399;28;20529;-50
2022/01/09 05:23:15;;;;;;;2.40;1.70;;;1.30;99.90;;;;;;5076585;28;20451;-49
2022/01/09 05:25:41;;;;;;;6.43;2.40;;;1.30;99.90;;;;;;5075972;28;20470;-51
2022/01/09 05:28:11;;;;;;;2.03;1.40;;;1.30;99.90;;;;;;5076043;28;20514;-52
2022/01/09 05:30:39;;;;;;;2.47;1.73;;;1.30;99.90;;;;;;5075888;28;20489;-49
2022/01/09 05:33:05;;;;;;;3.00;1.60;;;1.30;99.90;;;;;;5076327;28;20521;-52
2022/01/09 05:35:32;;;;;;;3.70;1.50;;;1.40;99.90;;;;;;5075537;28;20460;-51
2022/01/09 05:38:01;;;;;;;3.13;2.80;;;1.30;99.90;;;;;;5076165;28;20435;-48
2022/01/09 05:40:27;;;;;;;3.90;2.40;;;1.40;99.90;;;;;;5075820;28;20502;-50
2022/01/09 05:42:58;;;;;;;3.00;1.73;;;1.30;99.90;;;;;;5076523;28;20448;-48
2022/01/09 05:45:24;;;;;;;7.87;2.37;;;1.30;99.90;;;;;;5075815;28;20478;-51
2022/01/09 05:47:52;;;;;;;4.33;1.57;;;1.30;99.90;;;;;;5076030;28;20431;-49
2022/01/09 05:50:19;;;;;;;4.53;2.80;;;1.30;99.90;;;;;;5075585;28;20501;-52
2022/01/09 05:52:46;;;;;;;1.80;1.20;;;1.30;99.90;;;;;;5075802;28;20422;-52
2022/01/09 05:55:12;;;;;;;4.07;2.73;;;1.30;99.90;;;;;;5075311;28;20494;-55
2022/01/09 05:57:41;;;;;;;3.97;2.10;;;1.30;99.90;;;;;;5075763;28;20470;-49
2022/01/09 06:00:08;;;;;;;3.30;1.93;;;1.40;99.90;;;;;;5076027;28;20454;-50
2022/01/09 06:02:35;;;;;;;2.17;1.50;;;1.40;99.90;;;;;;5076355;28;20408;-50
2022/01/09 06:05:09;;;;;;;3.00;1.57;;;1.40;99.90;;;;;;5075998;28;20442;-45
2022/01/09 06:07:39;;;;;;;4.23;2.33;;;1.40;99.90;;;;;;5075782;28;20514;-50
2022/01/09 06:10:08;;;;;;;3.00;2.23;;;1.40;99.90;;;;;;5075529;28;20510;-49
2022/01/09 06:12:36;;;;;;;2.60;1.90;;;1.40;99.90;;;;;;5075889;28;20420;-49
2022/01/09 06:15:04;;;;;;;2.70;2.03;;;1.50;99.90;;;;;;5080018;28;20454;-50
2022/01/09 06:17:35;;;;;;;2.43;1.70;;;1.50;99.90;;;;;;5079853;28;20486;-55
2022/01/09 06:20:06;;;;;;;3.90;1.90;;;1.50;99.90;;;;;;5080062;28;20535;-48
2022/01/09 06:22:35;;;;;;;5.80;2.00;;;1.50;99.90;;;;;;5079649;28;20431;-50
2022/01/09 06:25:02;;;;;;;6.93;2.50;;;1.50;99.90;;;;;;5079648;28;20490;-53
2022/01/09 06:27:28;;;;;;;3.37;2.77;;;1.60;99.90;;;;;;5080022;28;20415;-50
2022/01/09 06:29:55;;;;;;;4.60;1.77;;;1.60;99.90;;;;;;5079466;28;20517;-51
2022/01/09 06:32:22;;;;;;;6.37;2.00;;;1.60;99.90;;;;;;5079586;28;20608;-49
2022/01/09 06:34:49;;;;;;;4.80;1.50;;;1.60;99.90;;;;;;5079498;28;20454;-51
2022/01/09 06:37:17;;;;;;;2.97;1.77;;;1.60;99.90;;;;;;5079637;28;20443;-52
2022/01/09 06:39:44;;;;;;;5.80;2.43;;;1.60;99.90;;;;;;5079270;28;20439;-50
2022/01/09 06:42:12;;;;;;;5.43;2.87;;;1.60;99.90;;;;;;5078839;28;20446;-52
2022/01/09 06:44:38;;;;;;;4.33;2.80;;;1.60;99.90;;;;;;5079229;28;20442;-49
2022/01/09 06:47:05;;;;;;;3.20;1.80;;;1.60;99.90;;;;;;5079171;28;20439;-54
2022/01/09 06:49:33;;;;;;;6.13;2.40;;;1.60;99.90;;;;;;5078694;28;20494;-53
2022/01/09 06:51:59;;;;;;;3.53;2.50;;;1.50;99.90;;;;;;5078762;28;20469;-49
2022/01/09 06:54:29;;;;;;;6.23;1.83;;;1.50;99.90;;;;;;5078744;28;20420;-50
2022/01/09 06:56:56;;;;;;;5.77;2.20;;;1.50;99.90;;;;;;5078742;28;20463;-50
2022/01/09 06:59:23;;;;;;;3.77;1.93;;;1.50;99.90;;;;;;5079086;28;20446;-48
2022/01/09 07:01:50;;;;;;;2.67;2.00;;;1.50;99.90;;;;;;5078390;28;20504;-49
2022/01/09 07:04:18;;;;;;;5.13;2.10;;;1.50;99.90;;;;;;5079026;28;20454;-51
2022/01/09 07:06:45;;;;;;;3.63;1.70;;;1.50;99.90;;;;;;5078384;28;20480;-50
2022/01/09 07:09:12;;;;;;;9.30;2.70;;;1.60;99.90;;;;;;5061352;28;20466;-52
2022/01/09 07:11:40;;;;;;;2.03;1.90;;;1.60;99.90;;;;;;5078666;28;20448;-54
2022/01/09 07:14:07;;;;;;;9.60;2.30;;;1.60;99.90;;;;;;5078610;28;20477;-47
2022/01/09 07:16:35;;;;;;;4.10;2.93;;;1.50;99.90;;;;;;5078403;28;20494;-50
2022/01/09 07:19:02;;;;;;;6.00;2.67;;;1.50;99.90;;;;;;5078068;28;20443;-52
2022/01/09 07:21:32;;;;;;;5.30;2.63;;;1.60;99.90;;;;;;5078422;28;20462;-52
2022/01/09 07:23:58;;;;;;;3.60;2.20;;;1.60;99.90;;;;;;5078395;28;20465;-52
2022/01/09 07:26:25;;;;;;;4.60;2.50;;;1.60;99.90;;;;;;5077465;28;20474;-50
2022/01/09 07:28:53;;;;;;;3.13;1.83;;;1.70;99.90;;;;;;5077911;28;20472;-48
2022/01/09 07:31:20;;;;;;;2.80;2.17;;;1.70;99.90;;;;;;5078305;28;20467;-48
2022/01/09 07:33:46;;;;;;;7.37;2.33;;;1.70;99.90;;;;;;5078463;28;20440;-50
2022/01/09 07:36:18;;;;;;;2.63;1.93;;;1.80;99.90;;;;;;5078408;28;20464;-51
2022/01/09 07:38:45;;;;;;;2.60;2.40;;;1.80;99.90;;;;;;5078671;28;20511;-52
2022/01/09 07:41:14;;;;;;;6.70;2.30;;;1.80;99.90;;;;;;5078460;28;20463;-52
2022/01/09 07:43:40;;;;;;;3.13;1.77;;;1.90;99.90;;;;;;5078631;28;20430;-46
2022/01/09 07:46:08;;;;;;;3.30;1.97;;;1.90;99.90;;;;;;5078064;28;20493;-49
2022/01/09 07:48:37;;;;;;;5.10;2.90;;;1.90;99.90;;;;;;5078440;28;20489;-50
2022/01/09 07:51:04;;;;;;;2.90;2.27;;;2.00;99.90;;;;;;5078073;28;20452;-51
2022/01/09 07:53:30;;;;;;;5.27;2.60;;;2.00;99.90;;;;;;5078293;28;20455;-49
2022/01/09 07:55:57;;;;;;;6.20;3.27;;;2.00;99.90;;;;;;5078104;28;20439;-47
2022/01/09 07:58:24;;;;;;;9.13;3.60;;;2.00;99.90;;;;;;5077802;28;20466;-50
2022/01/09 08:00:51;;;;;;;6.10;3.30;;;2.00;99.90;;;;;;5077883;28;20448;-49
2022/01/09 08:03:19;;;;;;;4.73;2.63;;;2.10;99.90;;;;;;5077967;28;20420;-48
2022/01/09 08:05:46;;;;;;;3.73;2.50;;;2.10;99.90;;;;;;5077851;28;20435;-48
2022/01/09 08:08:16;;;;;;;6.77;4.03;;;2.10;99.90;;;;;;5077986;28;20458;-50
2022/01/09 08:10:43;;;;;;;7.50;3.23;;;2.10;99.90;;;;;;5078288;28;20479;-48
2022/01/09 08:13:09;;;;;;;5.40;2.20;;;2.10;99.90;;;;;;5078256;28;20467;-49
2022/01/09 08:15:36;;;;;;;4.27;2.63;;;2.10;99.90;;;;;;5078423;28;20440;-48
2022/01/09 08:18:03;;;;;;;6.57;2.77;;;2.10;99.90;;;;;;5077613;28;20448;-50
2022/01/09 08:20:33;;;;;;;4.57;3.30;;;2.10;99.90;;;;;;5077909;28;20470;-53
2022/01/09 08:22:59;;;;;;;4.60;3.17;;;2.10;99.90;;;;;;5077638;28;20478;-52
2022/01/09 08:25:29;;;;;;;6.13;2.67;;;2.10;99.90;;;;;;5077890;28;20447;-53
2022/01/09 08:27:56;;;;;;;8.83;3.83;;;2.10;99.90;;;;;;5076867;28;20723;-50
2022/01/09 08:30:23;;;;;;;2.63;1.93;;;2.10;99.90;;;;;;5077474;28;20494;-46
2022/01/09 08:32:52;;;;;;;4.13;2.60;;;2.10;99.90;;;;;;5077320;28;20467;-54
2022/01/09 08:35:19;;;;;;;2.67;2.37;;;2.20;99.90;;;;;;5077073;28;20424;-48
2022/01/09 08:37:51;;;;;;;5.00;3.70;;;2.20;99.90;;;;;;5076186;28;20478;-47
2022/01/09 08:40:22;;;;;;;5.10;2.60;;;2.30;99.90;;;;;;5077641;28;20416;-53
2022/01/09 08:42:49;;;;;;;6.73;3.00;;;2.40;99.90;;;;;;5077261;28;20452;-51
2022/01/09 08:45:16;;;;;;;5.63;2.13;;;2.40;99.90;;;;;;5077283;28;20431;-49
2022/01/09 08:47:43;;;;;;;6.70;3.13;;;2.50;99.90;;;;;;5077285;28;20450;-52
2022/01/09 08:50:12;;;;;;;5.07;3.00;;;2.50;99.90;;;;;;5077539;28;20489;-44
2022/01/09 08:52:39;;;;;;;3.83;3.13;;;2.50;99.90;;;;;;5077454;28;20480;-53
2022/01/09 08:55:08;;;;;;;6.77;3.40;;;2.50;99.90;;;;;;5077234;28;20452;-53
2022/01/09 08:57:35;;;;;;;5.93;2.27;;;2.60;99.90;;;;;;5076874;28;20476;-52
2022/01/09 09:00:02;;;;;;;3.10;2.30;;;2.60;99.90;;;;;;5076769;28;20448;-54
2022/01/09 09:02:29;;;;;;;5.10;2.60;;;2.60;99.90;;;;;;5076648;28;20447;-52
2022/01/09 09:04:55;;;;;;;4.43;2.33;;;2.60;99.90;;;;;;5076212;28;20452;-49
2022/01/09 09:07:24;;;;;;;4.67;3.03;;;2.60;99.90;;;;;;5076793;28;20959;-49
2022/01/09 09:09:51;;;;;;;3.13;2.57;;;2.60;99.90;;;;;;5076739;28;20489;-47
2022/01/09 09:12:20;;;;;;;7.10;3.57;;;2.60;99.90;;;;;;5076103;28;20482;-51
2022/01/09 09:14:48;;;;;;;14.17;3.37;;;2.60;99.90;;;;;;5076579;28;20463;-53
2022/01/09 09:17:15;;;;;;;9.03;3.40;;;2.60;99.90;;;;;;5076601;28;20475;-51
2022/01/09 09:19:42;;;;;;;8.33;3.87;;;2.60;99.90;;;;;;5076730;28;20451;-49
2022/01/09 09:22:08;;;;;;;3.97;2.53;;;2.60;99.90;;;;;;5076375;28;20518;-53
2022/01/09 09:24:35;;;;;;;2.90;2.30;;;2.60;99.90;;;;;;5076397;28;20474;-56
2022/01/09 09:27:04;;;;;;;4.00;2.80;;;2.60;99.90;;;;;;5076485;28;20498;-46
2022/01/09 09:29:32;;;;;;;8.50;3.87;;;2.70;99.90;;;;;;5076485;28;20471;-51
2022/01/09 09:31:58;;;;;;;6.13;2.87;;;2.70;99.90;;;;;;5076595;28;20550;-52
2022/01/09 09:34:25;;;;;;;2.70;2.10;;;2.70;99.90;;;;;;5076331;28;20455;-52
2022/01/09 09:36:52;;;;;;;4.87;2.10;;;2.70;99.90;;;;;;5076408;28;20440;-46
2022/01/09 09:39:19;;;;;;;4.03;1.97;;;2.80;99.90;;;;;;5076077;28;20452;-49
2022/01/09 09:41:48;;;;;;;3.37;2.57;;;2.80;99.90;;;;;;5075603;28;20444;-47
2022/01/09 09:44:14;;;;;;;5.20;3.30;;;2.80;99.90;;;;;;5076080;28;20531;-47
2022/01/09 09:46:49;;;;;;;6.30;3.70;;;2.80;99.90;;;;;;5076317;28;20424;-50
2022/01/09 09:49:16;;;;;;;6.53;3.40;;;2.90;99.90;;;;;;5075774;28;20464;-48
2022/01/09 09:51:42;;;;;;;4.00;2.20;;;2.90;99.90;;;;;;5075841;28;20448;-49
2022/01/09 09:54:09;;;;;;;4.73;2.70;;;2.90;99.90;;;;;;5076041;28;20403;-48
2022/01/09 09:56:36;;;;;;;3.53;2.13;;;3.00;99.90;;;;;;5075784;28;20459;-49
2022/01/09 09:59:03;;;;;;;6.30;2.70;;;3.00;99.90;;;;;;5075621;28;20443;-52
2022/01/09 10:01:33;;;;;;;3.90;2.00;;;2.90;99.90;;;;;;5075717;28;20436;-51
2022/01/09 10:04:02;;;;;;;3.73;2.77;;;3.00;99.90;;;;;;5076119;28;20426;-49
2022/01/09 10:06:37;;;;;;;8.40;3.43;;;3.00;99.90;;;;;;5076156;28;20435;-44
2022/01/09 10:09:12;;;;;;;4.03;2.63;;;3.00;99.90;;;;;;5076268;28;20454;-48
2022/01/09 10:11:49;;;;;;;7.47;2.40;;;3.00;99.90;;;;;;5076013;28;20434;-57
2022/01/09 10:14:19;;;;;;;5.27;2.67;;;3.10;99.90;;;;;;5076480;28;20439;-46
2022/01/09 10:17:09;;;;;;;8.90;3.10;;;3.20;99.90;;;;;;5076180;28;20408;-53
2022/01/09 10:19:49;;;;;;;7.93;2.57;;;3.20;99.90;;;;;;5075974;28;20429;-51
2022/01/09 10:22:25;;;;;;;4.53;2.30;;;3.30;99.90;;;;;;5075112;28;20440;-49
2022/01/09 10:24:52;;;;;;;14.43;4.17;;;3.30;99.90;;;;;;5076046;28;20419;-50
2022/01/09 10:27:31;;;;;;;7.90;3.83;;;3.40;99.90;;;;;;5075511;28;20443;-50
2022/01/09 10:30:03;;;;;;;5.33;3.67;;;3.40;99.90;;;;;;5076073;28;20478;-49
2022/01/09 10:32:31;;;;;;;7.87;3.37;;;3.50;99.90;;;;;;5075410;28;20455;-50
2022/01/09 10:35:07;;;;;;;7.80;3.60;;;3.60;99.90;;;;;;5075396;28;20428;-50
2022/01/09 10:37:35;;;;;;;3.77;3.00;;;3.60;99.90;;;;;;5075698;28;20463;-49
2022/01/09 10:40:05;;;;;;;4.50;2.40;;;3.70;99.90;;;;;;5075587;28;20419;-50
2022/01/09 10:42:32;;;;;;;4.33;3.07;;;3.70;99.90;;;;;;5075758;28;20466;-52
2022/01/09 10:45:16;;;;;;;17.87;3.40;;;3.80;99.90;;;;;;5075459;28;20425;-51
2022/01/09 10:47:43;;;;;;;3.57;2.03;;;3.90;99.90;;;;;;5075591;28;20558;-50
2022/01/09 10:50:24;;;;;;;2.77;2.47;;;3.90;99.90;;;;;;5075317;28;20455;-48
2022/01/09 10:52:52;;;;;;;5.57;3.87;;;3.90;99.90;;;;;;5075995;28;20495;-51
2022/01/09 10:55:19;;;;;;;6.80;3.53;;;3.90;99.90;;;;;;5075259;28;20432;-46
2022/01/09 10:57:47;;;;;;;6.93;3.13;;;3.90;99.90;;;;;;5075152;28;20479;-47
2022/01/09 11:00:16;;;;;;;6.40;2.97;;;4.00;99.90;;;;;;5075830;28;20420;-48
2022/01/09 11:02:45;;;;;;;7.73;3.30;;;4.00;99.90;;;;;;5078797;28;20470;-47
2022/01/09 11:05:13;;;;;;;4.10;1.70;;;4.10;99.90;;;;;;5078770;28;20515;-49
2022/01/09 11:07:41;;;;;;;5.57;3.70;;;4.10;99.90;;;;;;5078916;28;20477;-51
2022/01/09 11:10:09;;;;;;;9.30;2.30;;;4.20;99.90;;;;;;5079175;28;20460;-52
2022/01/09 11:12:48;;;;;;;5.30;2.70;;;4.30;99.90;;;;;;5078931;28;20539;-48
2022/01/09 11:15:21;;;;;;;10.23;3.17;;;4.40;99.90;;;;;;5079082;28;20479;-50
2022/01/09 11:17:48;;;;;;;9.83;2.90;;;4.50;99.90;;;;;;5079196;28;20436;-52
2022/01/09 11:20:17;;;;;;;5.73;3.40;;;4.50;99.90;;;;;;5079045;28;20483;-55
2022/01/09 11:22:44;;;;;;;6.73;3.20;;;4.50;99.90;;;;;;5079024;28;20850;-52
2022/01/09 11:25:17;;;;;;;6.90;3.63;;;4.50;99.90;;;;;;5078770;28;20527;-52
2022/01/09 11:27:52;;;;;;;3.77;2.23;;;4.50;99.90;;;;;;5078900;28;20412;-51
2022/01/09 11:30:22;;;;;;;7.80;3.57;;;4.50;99.90;;;;;;5078717;28;20471;-53
2022/01/09 11:33:02;;;;;;;7.17;3.50;;;4.50;99.90;;;;;;5078808;28;20424;-50
2022/01/09 11:35:49;;;;;;;6.60;4.33;;;4.50;99.90;;;;;;5078299;28;20436;-52
2022/01/09 11:38:30;;;;;;;6.30;2.70;;;4.60;99.90;;;;;;5078376;28;20459;-53
2022/01/09 11:41:14;;;;;;;2.53;2.27;;;4.60;99.90;;;;;;5078160;28;20470;-51
2022/01/09 11:43:52;;;;;;;8.87;3.67;;;4.60;99.90;;;;;;5079194;28;20464;-51
2022/01/09 11:46:19;;;;;;;4.10;2.53;;;4.50;99.90;;;;;;5079410;28;20416;-48
2022/01/09 11:49:01;;;;;;;3.30;2.97;;;4.50;99.90;;;;;;5078445;28;20499;-52
2022/01/09 11:51:30;;;;;;;4.53;2.77;;;4.40;99.90;;;;;;5078467;28;20507;-53
2022/01/09 11:54:06;;;;;;;3.43;2.40;;;4.40;99.90;;;;;;5078537;28;20474;-52
2022/01/09 11:57:08;;;;;;;2.67;2.47;;;4.20;99.90;;;;;;5078696;28;20432;-50
2022/01/09 11:59:54;;;;;;;3.70;3.00;;;4.30;99.90;;;;;;5073155;28;20459;-51
2022/01/09 12:02:37;;;;;;;4.47;3.00;;;4.30;99.90;;;;;;5078401;28;20495;-53
2022/01/09 12:05:06;;;;;;;4.60;2.83;;;4.50;99.90;;;;;;5078113;28;20436;-52
2022/01/09 12:08:05;;;;;;;5.23;3.63;;;4.50;99.90;;;;;;5078608;28;20447;-49
2022/01/09 12:10:47;;;;;;;11.80;3.80;;;4.60;99.90;;;;;;5078131;28;20464;-53
2022/01/09 12:13:39;;;;;;;4.57;2.60;;;4.60;99.90;;;;;;5078608;28;20471;-51
2022/01/09 12:16:07;;;;;;;4.77;2.77;;;4.70;99.90;;;;;;5078261;28;20439;-54
2022/01/09 12:18:42;;;;;;;6.57;3.20;;;4.90;99.90;;;;;;5078075;28;20492;-51
2022/01/09 12:21:10;;;;;;;2.83;1.80;;;5.00;99.90;;;;;;5078237;28;20423;-53
2022/01/09 12:23:38;;;;;;;8.60;3.20;;;5.00;99.90;;;;;;5077643;28;20486;-52
2022/01/09 12:26:04;;;;;;;4.90;2.63;;;4.90;99.90;;;;;;5078042;28;20423;-50
2022/01/09 12:28:45;;;;;;;5.67;2.47;;;4.90;99.90;;;;;;5078055;28;20472;-58
2022/01/09 12:31:27;;;;;;;6.60;2.83;;;5.00;99.90;;;;;;5077900;28;20494;-50
2022/01/09 12:33:54;;;;;;;3.80;3.20;;;5.00;99.90;;;;;;5077806;28;20448;-52
2022/01/09 12:36:27;;;;;;;3.77;3.40;;;5.00;99.90;;;;;;5078358;28;20428;-52
2022/01/09 12:39:02;;;;;;;6.60;3.30;;;5.00;99.90;;;;;;5077931;28;20458;-51
2022/01/09 12:41:32;;;;;;;5.80;3.50;;;5.00;99.90;;;;;;5077859;28;20443;-52
2022/01/09 12:44:06;;;;;;;3.60;2.30;;;4.90;99.90;;;;;;5077697;28;20477;-48
2022/01/09 12:46:39;;;;;;;5.37;3.43;;;5.00;99.90;;;;;;5077743;28;20451;-51
2022/01/09 12:49:08;;;;;;;5.53;2.77;;;4.80;99.90;;;;;;5077561;28;20460;-51
2022/01/09 12:51:36;;;;;;;8.00;3.30;;;4.80;99.90;;;;;;5077225;28;20463;-50
2022/01/09 12:54:06;;;;;;;4.70;2.80;;;4.80;99.90;;;;;;5077326;28;20490;-53
2022/01/09 12:56:34;;;;;;;2.10;1.70;;;4.80;99.90;;;;;;5077373;28;20416;-50
2022/01/09 12:59:05;;;;;;;8.67;3.03;;;4.80;99.90;;;;;;5077285;28;20472;-52
2022/01/09 13:01:36;;;;;;;6.83;2.73;;;4.80;99.90;;;;;;5077224;28;20472;-47
2022/01/09 13:04:09;;;;;;;8.17;2.80;;;4.80;99.90;;;;;;5077474;28;20976;-53
2022/01/09 13:06:37;;;;;;;3.10;2.13;;;4.80;99.90;;;;;;5077070;28;20440;-53
2022/01/09 13:09:12;;;;;;;3.67;2.87;;;4.70;99.90;;;;;;5077261;28;20466;-51